Time;durP1;ratioP1;P1;durP2;ratioP2;P2;SDS_P1;SDS_P2;PMS_P1;PMS_P2;Temp;Humidity;BMP_temperature;BMP_pressure;BME280_temperature;BME280_humidity;BME280_pressure;Samples;Min_cycle;Max_cycle;Signal;HPM_P1;HPM_P2
2021/01/17 00:01:04;;;;;;;42.58;16.90;;;0.00;99.90;;;;;;5102764;28;20044;-72
2021/01/17 00:03:31;;;;;;;42.00;17.67;;;0.20;99.90;;;;;;5101429;28;20433;-72
2021/01/17 00:05:58;;;;;;;42.92;18.08;;;0.40;99.90;;;;;;5103747;28;20051;-72
2021/01/17 00:08:24;;;;;;;37.05;16.30;;;0.70;99.90;;;;;;5103379;28;20058;-73
2021/01/17 00:10:51;;;;;;;39.25;16.50;;;0.80;99.90;;;;;;5099653;28;20060;-73
2021/01/17 00:13:18;;;;;;;45.47;18.52;;;0.90;99.90;;;;;;5105236;27;20051;-73
2021/01/17 00:15:45;;;;;;;46.50;17.50;;;0.50;99.90;;;;;;5105168;27;20437;-72
2021/01/17 00:18:13;;;;;;;45.47;18.90;;;0.80;99.90;;;;;;5099806;28;20158;-74
2021/01/17 00:20:48;;;;;;;40.30;17.00;;;0.70;99.90;;;;;;5092616;27;20044;-74
2021/01/17 00:23:15;;;;;;;49.83;18.25;;;0.40;99.90;;;;;;5101541;28;20052;-72
2021/01/17 00:25:41;;;;;;;43.80;16.77;;;0.40;99.90;;;;;;5079936;28;20101;-71
2021/01/17 00:28:07;;;;;;;42.28;17.40;;;0.50;99.90;;;;;;5103869;27;20101;-72
2021/01/17 00:30:34;;;;;;;45.25;17.35;;;0.30;99.90;;;;;;5104656;28;20058;-74
2021/01/17 00:33:02;;;;;;;41.25;17.23;;;0.70;99.90;;;;;;5096650;28;20146;-73
2021/01/17 00:35:30;;;;;;;44.85;17.67;;;0.90;99.90;;;;;;5102716;28;20048;-72
2021/01/17 00:37:59;;;;;;;42.80;17.70;;;0.80;99.90;;;;;;5100649;28;20138;-72
2021/01/17 00:40:27;;;;;;;42.30;17.63;;;0.90;99.90;;;;;;5103601;28;20126;-73
2021/01/17 00:42:54;;;;;;;40.58;17.35;;;0.80;99.90;;;;;;5096713;28;20127;-71
2021/01/17 00:45:23;;;;;;;44.25;17.75;;;0.90;99.90;;;;;;5099032;28;20104;-72
2021/01/17 00:47:50;;;;;;;40.78;17.50;;;0.80;99.90;;;;;;5099871;28;20048;-73
2021/01/17 00:50:18;;;;;;;42.08;17.08;;;0.70;99.90;;;;;;5103043;28;20178;-72
2021/01/17 00:52:50;;;;;;;33.92;15.93;;;0.70;99.90;;;;;;5098526;28;20933;-72
2021/01/17 00:55:16;;;;;;;43.33;17.27;;;0.70;99.90;;;;;;5100361;28;20047;-73
2021/01/17 00:57:43;;;;;;;42.97;18.38;;;0.30;99.90;;;;;;5101221;28;20178;-73
2021/01/17 01:00:11;;;;;;;43.38;17.40;;;0.70;99.90;;;;;;5102037;28;20048;-72
2021/01/17 01:02:40;;;;;;;;;;;0.50;99.90;;;;;;5105935;28;20100;-72
2021/01/17 01:05:08;;;;;;;38.60;16.30;;;0.60;99.90;;;;;;5104000;28;19928;-73
2021/01/17 01:07:34;;;;;;;42.00;15.85;;;1.00;99.90;;;;;;5103163;28;20132;-73
2021/01/17 01:10:04;;;;;;;46.53;17.85;;;1.00;99.90;;;;;;5102626;28;20494;-73
2021/01/17 01:12:30;;;;;;;40.50;17.27;;;0.70;99.90;;;;;;5101836;28;20131;-72
2021/01/17 01:14:57;;;;;;;45.58;18.15;;;0.80;99.90;;;;;;5106809;28;20813;-72
2021/01/17 01:17:26;;;;;;;42.72;17.17;;;0.70;99.90;;;;;;5103387;28;20051;-71
2021/01/17 01:19:53;;;;;;;43.00;17.20;;;0.80;99.90;;;;;;5101069;28;20055;-71
2021/01/17 01:22:19;;;;;;;40.63;16.35;;;0.70;99.90;;;;;;5105993;28;20124;-72
2021/01/17 01:24:46;;;;;;;44.35;16.70;;;0.30;99.90;;;;;;5102593;28;20052;-72
2021/01/17 01:27:12;;;;;;;36.95;16.40;;;0.40;99.90;;;;;;5104183;28;20048;-71
2021/01/17 01:29:39;;;;;;;42.17;16.70;;;0.30;99.90;;;;;;5103422;28;20546;-72
2021/01/17 01:32:11;;;;;;;39.92;16.05;;;0.30;99.90;;;;;;5101989;28;20101;-72
2021/01/17 01:34:38;;;;;;;40.20;16.88;;;0.70;99.90;;;;;;5104681;28;20040;-71
2021/01/17 01:37:04;;;;;;;42.55;16.60;;;0.50;99.90;;;;;;5102852;28;20048;-73
2021/01/17 01:39:30;;;;;;;46.35;18.85;;;0.50;99.90;;;;;;5106556;28;20070;-72
2021/01/17 01:42:02;;;;;;;31.63;13.68;;;0.60;99.90;;;;;;5109849;28;20044;-73
2021/01/17 01:44:33;;;;;;;44.00;17.30;;;0.70;99.90;;;;;;5104199;28;20058;-73
2021/01/17 01:47:00;;;;;;;38.97;16.73;;;0.50;99.90;;;;;;5108045;28;20113;-73
2021/01/17 01:49:27;;;;;;;40.97;17.88;;;0.70;99.90;;;;;;5104293;28;20074;-73
2021/01/17 01:51:56;;;;;;;34.58;14.95;;;0.20;99.90;;;;;;5105077;28;20090;-74
2021/01/17 01:54:22;;;;;;;35.38;15.63;;;0.40;99.90;;;;;;5111156;28;20039;-73
2021/01/17 01:56:52;;;;;;;34.80;15.05;;;0.50;99.90;;;;;;5106270;28;20147;-73
2021/01/17 01:59:19;;;;;;;33.42;16.90;;;0.70;99.90;;;;;;5107819;28;20458;-74
2021/01/17 02:01:47;;;;;;;37.45;16.13;;;0.50;99.90;;;;;;5110253;28;20481;-73
2021/01/17 02:04:14;;;;;;;35.50;16.08;;;0.50;99.90;;;;;;5107481;28;20086;-72
2021/01/17 02:07:02;;;;;;;41.22;16.60;;;0.20;99.90;;;;;;5108844;28;20051;-73
2021/01/17 02:09:29;;;;;;;38.70;15.43;;;0.30;99.90;;;;;;5109667;28;20437;-72
2021/01/17 02:12:16;;;;;;;37.47;15.52;;;0.20;99.90;;;;;;5107753;28;20089;-73
2021/01/17 02:15:04;;;;;;;38.35;16.52;;;0.00;99.90;;;;;;5108423;28;20086;-73
2021/01/17 02:17:32;;;;;;;38.97;16.58;;;0.30;99.90;;;;;;5103635;28;20391;-73
2021/01/17 02:20:10;;;;;;;43.05;17.45;;;0.20;99.90;;;;;;5104011;28;20067;-73
2021/01/17 02:23:01;;;;;;;34.83;15.68;;;0.60;99.90;;;;;;5104148;28;20055;-72
2021/01/17 02:25:34;;;;;;;;;;;0.50;99.90;;;;;;5107842;28;20048;-72
2021/01/17 02:28:03;;;;;;;33.35;13.52;;;0.70;99.90;;;;;;5108033;28;19920;-73
2021/01/17 02:30:33;;;;;;;40.53;16.23;;;0.70;99.90;;;;;;5107870;28;20067;-73
2021/01/17 02:33:07;;;;;;;42.83;16.27;;;0.70;99.90;;;;;;5104310;28;20090;-73
2021/01/17 02:35:35;;;;;;;34.85;15.65;;;0.50;99.90;;;;;;5109822;28;20134;-73
2021/01/17 02:38:15;;;;;;;39.05;16.15;;;0.50;99.90;;;;;;5106851;28;20116;-73
2021/01/17 02:41:08;;;;;;;34.08;15.02;;;0.50;99.90;;;;;;5106018;28;20249;-72
2021/01/17 02:43:35;;;;;;;34.55;14.43;;;0.60;99.90;;;;;;5110163;28;20410;-74
2021/01/17 02:46:01;;;;;;;36.40;15.63;;;0.70;99.90;;;;;;5107022;28;20143;-73
2021/01/17 02:48:28;;;;;;;37.85;14.93;;;0.80;99.90;;;;;;5108953;28;20048;-73
2021/01/17 02:50:54;;;;;;;34.95;15.15;;;0.70;99.90;;;;;;5108112;28;20105;-73
2021/01/17 02:53:40;;;;;;;34.85;14.40;;;0.40;99.90;;;;;;5107602;28;20075;-72
2021/01/17 02:56:09;;;;;;;36.47;14.98;;;0.30;99.90;;;;;;5111171;28;20467;-73
2021/01/17 02:58:41;;;;;;;33.42;14.13;;;0.80;99.90;;;;;;5102858;27;20391;-74
2021/01/17 03:01:11;;;;;;;35.58;15.30;;;0.90;99.90;;;;;;5107438;28;20052;-74
2021/01/17 03:03:41;;;;;;;32.40;14.68;;;0.90;99.90;;;;;;5111239;28;20039;-73
2021/01/17 03:06:09;;;;;;;29.63;14.07;;;0.80;99.90;;;;;;5110212;28;20043;-74
2021/01/17 03:08:37;;;;;;;31.92;13.85;;;0.60;99.90;;;;;;5111150;28;20079;-72
2021/01/17 03:11:05;;;;;;;33.78;14.52;;;0.90;99.90;;;;;;5110348;28;20101;-73
2021/01/17 03:13:35;;;;;;;35.70;15.10;;;0.80;99.90;;;;;;5109378;28;20092;-75
2021/01/17 03:16:04;;;;;;;34.40;13.45;;;1.20;99.90;;;;;;5108917;28;20090;-73
2021/01/17 03:18:31;;;;;;;32.63;14.57;;;1.20;99.90;;;;;;5111250;28;20134;-72
2021/01/17 03:20:57;;;;;;;36.65;14.80;;;1.10;99.90;;;;;;5109628;28;20478;-73
2021/01/17 03:23:23;;;;;;;32.55;14.27;;;1.20;99.90;;;;;;5111807;28;20105;-74
2021/01/17 03:25:50;;;;;;;30.60;13.27;;;1.10;99.90;;;;;;5109311;28;20435;-74
2021/01/17 03:28:16;;;;;;;32.40;14.05;;;0.60;99.90;;;;;;5109762;28;20083;-74
2021/01/17 03:30:42;;;;;;;34.50;13.43;;;0.90;99.90;;;;;;5112170;28;20443;-74
2021/01/17 03:33:09;;;;;;;28.95;13.93;;;0.80;99.90;;;;;;5109686;28;20049;-72
2021/01/17 03:35:36;;;;;;;34.70;12.63;;;0.90;99.90;;;;;;5113067;28;20387;-72
2021/01/17 03:38:02;;;;;;;31.40;14.07;;;0.80;99.90;;;;;;5111732;28;20126;-74
2021/01/17 03:40:29;;;;;;;29.45;13.73;;;0.80;99.90;;;;;;5109054;28;20071;-72
2021/01/17 03:42:55;;;;;;;29.30;12.90;;;0.60;99.90;;;;;;5111852;28;20127;-72
2021/01/17 03:45:21;;;;;;;27.90;13.35;;;1.00;99.90;;;;;;5110117;28;20093;-73
2021/01/17 03:47:48;;;;;;;31.70;13.40;;;1.10;99.90;;;;;;5110422;28;20051;-74
2021/01/17 03:50:15;;;;;;;28.25;12.77;;;1.40;99.90;;;;;;5101954;28;20528;-73
2021/01/17 03:52:41;;;;;;;30.65;12.98;;;1.10;99.90;;;;;;5110360;28;20440;-72
2021/01/17 03:55:09;;;;;;;28.02;12.98;;;1.10;99.90;;;;;;5111331;28;20048;-73
2021/01/17 03:57:35;;;;;;;31.38;12.45;;;0.70;99.90;;;;;;5112971;28;20130;-72
2021/01/17 04:00:08;;;;;;;27.20;13.02;;;1.10;99.90;;;;;;5103546;28;20488;-73
2021/01/17 04:02:34;;;;;;;30.52;14.30;;;1.10;99.90;;;;;;5110168;28;20101;-73
2021/01/17 04:05:01;;;;;;;34.90;13.57;;;1.10;99.90;;;;;;5112290;28;20486;-74
2021/01/17 04:07:28;;;;;;;33.22;13.85;;;0.80;99.90;;;;;;5111839;28;20098;-72
2021/01/17 04:09:54;;;;;;;30.08;14.15;;;0.50;99.90;;;;;;5109986;28;20138;-73
2021/01/17 04:12:21;;;;;;;35.95;14.10;;;0.60;99.90;;;;;;5107111;28;20425;-73
2021/01/17 04:14:47;;;;;;;28.08;12.73;;;0.80;99.90;;;;;;5109315;28;20105;-74
2021/01/17 04:17:14;;;;;;;28.25;13.38;;;1.20;99.90;;;;;;5106490;28;20493;-73
2021/01/17 04:19:40;;;;;;;31.42;12.82;;;1.10;99.90;;;;;;5104278;28;20039;-73
2021/01/17 04:22:07;;;;;;;32.65;14.38;;;1.10;99.90;;;;;;5112540;28;20039;-73
2021/01/17 04:24:33;;;;;;;33.63;13.40;;;1.20;99.90;;;;;;5111852;28;20487;-72
2021/01/17 04:27:00;;;;;;;35.33;15.93;;;0.90;99.90;;;;;;5107193;28;20051;-73
2021/01/17 04:29:26;;;;;;;30.98;13.77;;;1.10;99.90;;;;;;5113569;28;20120;-73
2021/01/17 04:31:52;;;;;;;32.50;14.23;;;1.20;99.90;;;;;;5106154;28;20602;-75
2021/01/17 04:34:22;;;;;;;35.72;14.63;;;1.20;99.90;;;;;;5105300;28;20050;-74
2021/01/17 04:36:49;;;;;;;33.58;14.70;;;1.10;99.90;;;;;;5112531;28;20089;-74
2021/01/17 04:39:15;;;;;;;36.22;14.98;;;0.70;99.90;;;;;;5106196;28;20047;-74
2021/01/17 04:41:43;;;;;;;31.15;14.05;;;0.80;99.90;;;;;;5108909;28;20169;-72
2021/01/17 04:44:12;;;;;;;30.13;14.00;;;0.70;99.90;;;;;;5110973;28;20126;-73
2021/01/17 04:46:39;;;;;;;33.35;14.65;;;0.50;99.90;;;;;;5107357;28;20507;-73
2021/01/17 04:49:09;;;;;;;32.25;13.55;;;0.50;99.90;;;;;;5111052;28;20138;-73
2021/01/17 04:51:35;;;;;;;36.20;14.93;;;0.70;99.90;;;;;;5108162;28;20048;-73
2021/01/17 04:54:04;;;;;;;34.17;15.40;;;0.90;99.90;;;;;;5107849;28;20098;-73
2021/01/17 04:56:33;;;;;;;37.45;15.57;;;0.50;99.90;;;;;;5111545;28;20130;-72
2021/01/17 04:59:19;;;;;;;35.15;15.48;;;0.70;99.90;;;;;;5103435;28;20101;-74
2021/01/17 05:01:49;;;;;;;32.17;14.65;;;0.70;99.90;;;;;;5100092;28;20398;-73
2021/01/17 05:04:36;;;;;;;33.70;14.77;;;0.80;99.90;;;;;;5113085;28;20461;-74
2021/01/17 05:07:15;;;;;;;34.20;14.57;;;1.00;99.90;;;;;;5110366;28;20044;-73
2021/01/17 05:10:02;;;;;;;36.67;14.52;;;1.10;99.90;;;;;;5100234;28;20086;-74
2021/01/17 05:12:37;;;;;;;34.25;14.07;;;1.40;99.90;;;;;;5109009;28;20160;-73
2021/01/17 05:15:05;;;;;;;34.63;14.18;;;1.10;99.90;;;;;;5107238;28;20067;-74
2021/01/17 05:17:41;;;;;;;32.95;14.52;;;1.00;99.90;;;;;;5105536;28;20451;-73
2021/01/17 05:20:09;;;;;;;33.25;14.25;;;1.30;99.90;;;;;;5110541;28;20043;-73
2021/01/17 05:22:36;;;;;;;30.20;13.70;;;1.30;99.90;;;;;;5105269;28;20050;-73
2021/01/17 05:25:05;;;;;;;29.42;13.77;;;1.30;99.90;;;;;;5107965;28;20060;-72
2021/01/17 05:27:35;;;;;;;35.10;14.52;;;0.90;99.90;;;;;;5110883;28;20450;-72
2021/01/17 05:30:07;;;;;;;32.15;14.38;;;0.60;99.90;;;;;;5106148;28;20052;-73
2021/01/17 05:32:33;;;;;;;36.40;15.77;;;1.20;99.90;;;;;;5108235;28;20059;-73
2021/01/17 05:35:01;;;;;;;34.58;15.15;;;1.30;99.90;;;;;;5110003;28;20469;-73
2021/01/17 05:37:31;;;;;;;33.70;14.38;;;1.40;99.90;;;;;;5105434;28;20061;-73
2021/01/17 05:40:03;;;;;;;35.13;14.52;;;1.20;99.90;;;;;;5104747;28;20056;-72
2021/01/17 05:42:32;;;;;;;35.88;15.38;;;1.40;99.90;;;;;;5108344;28;20549;-73
2021/01/17 05:45:14;;;;;;;28.40;12.43;;;1.00;99.90;;;;;;5109105;28;20458;-74
2021/01/17 05:47:42;;;;;;;32.42;14.07;;;0.70;99.90;;;;;;5110597;28;20126;-74
2021/01/17 05:50:12;;;;;;;34.65;15.48;;;0.80;99.90;;;;;;5108579;28;20508;-73
2021/01/17 05:52:39;;;;;;;35.53;14.95;;;1.20;99.90;;;;;;5107917;28;20055;-73
2021/01/17 05:55:06;;;;;;;36.15;15.85;;;1.40;99.90;;;;;;5107089;28;20052;-73
2021/01/17 05:57:34;;;;;;;32.10;14.77;;;1.20;99.90;;;;;;5106724;28;20459;-73
2021/01/17 06:00:03;;;;;;;34.25;15.30;;;1.40;99.90;;;;;;5107131;28;20117;-74
2021/01/17 06:02:30;;;;;;;37.75;15.73;;;1.30;99.90;;;;;;5108738;28;20047;-73
2021/01/17 06:04:59;;;;;;;35.90;16.48;;;1.20;99.90;;;;;;5107525;28;20047;-74
2021/01/17 06:07:29;;;;;;;36.58;14.73;;;1.10;99.90;;;;;;5111157;28;20044;-74
2021/01/17 06:10:06;;;;;;;38.67;15.50;;;1.20;99.90;;;;;;5107591;28;20075;-73
2021/01/17 06:12:38;;;;;;;37.42;15.45;;;1.40;99.90;;;;;;5101983;28;20056;-73
2021/01/17 06:15:12;;;;;;;38.70;16.20;;;1.60;99.90;;;;;;5104822;28;20406;-73
2021/01/17 06:17:46;;;;;;;35.53;16.52;;;1.60;99.90;;;;;;5100166;28;20048;-73
2021/01/17 06:20:21;;;;;;;34.13;14.35;;;1.30;99.90;;;;;;5099026;28;20077;-74
2021/01/17 06:22:48;;;;;;;37.97;16.13;;;1.50;99.90;;;;;;5106182;28;20139;-74
2021/01/17 06:25:14;;;;;;;37.40;16.48;;;1.30;99.90;;;;;;5108097;28;20505;-73
2021/01/17 06:27:41;;;;;;;38.55;15.70;;;1.40;99.90;;;;;;5108692;28;20086;-74
2021/01/17 06:30:18;;;;;;;33.95;14.88;;;1.20;99.90;;;;;;5111319;28;20047;-74
2021/01/17 06:32:48;;;;;;;36.72;16.58;;;1.20;99.90;;;;;;5109201;28;20444;-72
2021/01/17 06:35:15;;;;;;;35.58;16.15;;;1.10;99.90;;;;;;5100216;28;20054;-73
2021/01/17 06:37:41;;;;;;;40.17;16.30;;;1.40;99.90;;;;;;5114825;28;20092;-73
2021/01/17 06:40:08;;;;;;;39.88;16.02;;;1.60;99.90;;;;;;5111709;28;20071;-73
2021/01/17 06:42:37;;;;;;;34.38;15.05;;;1.40;99.90;;;;;;5112654;28;20054;-74
2021/01/17 06:45:15;;;;;;;38.30;16.50;;;1.40;99.90;;;;;;5111122;28;20070;-73
2021/01/17 06:47:53;;;;;;;39.50;15.73;;;1.40;99.90;;;;;;5107424;28;20047;-74
2021/01/17 06:50:23;;;;;;;35.63;15.65;;;1.20;99.90;;;;;;5108888;28;20043;-73
2021/01/17 06:52:54;;;;;;;35.08;16.48;;;1.40;99.90;;;;;;5109179;28;20047;-75
2021/01/17 06:55:21;;;;;;;35.35;16.20;;;1.40;99.90;;;;;;5110895;28;20101;-73
2021/01/17 06:57:48;;;;;;;39.88;16.10;;;1.40;99.90;;;;;;5107457;28;20085;-74
2021/01/17 07:00:18;;;;;;;43.05;17.30;;;1.30;99.90;;;;;;5110322;28;20498;-74
2021/01/17 07:02:52;;;;;;;37.03;16.80;;;0.90;99.90;;;;;;5103980;28;21306;-74
2021/01/17 07:05:36;;;;;;;37.40;16.90;;;1.10;99.90;;;;;;5114090;28;20055;-74
2021/01/17 07:08:04;;;;;;;38.92;17.50;;;1.50;99.90;;;;;;5111016;28;20083;-74
2021/01/17 07:10:41;;;;;;;35.72;15.60;;;1.40;99.90;;;;;;5109678;28;20134;-74
2021/01/17 07:13:17;;;;;;;41.92;16.92;;;1.30;99.90;;;;;;5113342;28;20079;-73
2021/01/17 07:15:43;;;;;;;38.70;16.60;;;1.40;99.90;;;;;;5107141;28;20075;-74
2021/01/17 07:18:15;;;;;;;40.47;18.27;;;1.60;99.90;;;;;;5103240;28;20070;-74
2021/01/17 07:20:42;;;;;;;35.47;16.25;;;1.50;99.90;;;;;;5113053;28;20052;-74
2021/01/17 07:23:11;;;;;;;40.28;17.60;;;1.60;99.90;;;;;;5107230;28;20105;-74
2021/01/17 07:25:39;;;;;;;39.35;16.83;;;1.70;99.90;;;;;;5102584;28;20069;-73
2021/01/17 07:28:08;;;;;;;39.83;16.70;;;1.80;99.90;;;;;;5101236;28;20080;-72
2021/01/17 07:30:40;;;;;;;43.15;17.85;;;1.80;99.90;;;;;;5104902;28;20118;-73
2021/01/17 07:33:08;;;;;;;42.00;17.25;;;1.90;99.90;;;;;;5106559;28;20088;-73
2021/01/17 07:35:38;;;;;;;39.65;16.88;;;1.50;99.90;;;;;;5111653;28;20378;-74
2021/01/17 07:38:17;;;;;;;40.95;17.00;;;1.20;99.90;;;;;;5108448;28;20105;-75
2021/01/17 07:41:01;;;;;;;42.85;16.85;;;1.60;99.90;;;;;;5107859;28;20458;-73
2021/01/17 07:43:37;;;;;;;37.63;17.70;;;1.60;99.90;;;;;;5112726;28;20048;-74
2021/01/17 07:46:10;;;;;;;40.67;17.27;;;1.50;99.90;;;;;;5104864;27;20474;-74
2021/01/17 07:48:38;;;;;;;38.08;16.80;;;1.80;99.90;;;;;;5109844;28;20054;-75
2021/01/17 07:51:08;;;;;;;40.45;18.38;;;1.70;99.90;;;;;;5103719;28;20051;-73
2021/01/17 07:53:37;;;;;;;40.35;16.48;;;1.50;99.90;;;;;;5104508;28;20718;-72
2021/01/17 07:56:14;;;;;;;39.75;16.98;;;1.80;99.90;;;;;;5111594;28;20039;-74
2021/01/17 07:58:46;;;;;;;36.28;15.45;;;1.50;99.90;;;;;;5110118;28;20075;-73
2021/01/17 08:01:30;;;;;;;40.38;17.25;;;1.30;99.90;;;;;;5109397;28;20070;-75
2021/01/17 08:04:03;;;;;;;35.88;15.95;;;1.60;99.90;;;;;;5109437;28;20109;-74
2021/01/17 08:06:36;;;;;;;38.42;17.13;;;1.70;99.90;;;;;;5111195;28;20517;-74
2021/01/17 08:09:10;;;;;;;37.50;15.63;;;1.50;99.90;;;;;;5107725;28;20080;-74
2021/01/17 08:11:43;;;;;;;40.35;17.15;;;1.50;99.90;;;;;;5107931;28;20467;-74
2021/01/17 08:14:32;;;;;;;42.75;16.30;;;1.60;99.90;;;;;;5122384;27;20055;-74
2021/01/17 08:17:19;;;;;;;38.97;15.80;;;1.60;99.90;;;;;;5104227;27;20052;-74
2021/01/17 08:19:56;;;;;;;37.65;16.10;;;1.50;99.90;;;;;;5110245;28;20432;-73
2021/01/17 08:22:22;;;;;;;39.80;16.77;;;1.30;99.90;;;;;;5111303;28;20047;-73
2021/01/17 08:24:56;;;;;;;43.10;16.90;;;1.60;99.90;;;;;;5107866;28;20079;-73
2021/01/17 08:27:31;;;;;;;42.38;17.80;;;1.90;99.90;;;;;;5109719;28;20043;-74
2021/01/17 08:30:01;;;;;;;41.42;17.38;;;1.70;99.90;;;;;;5111694;28;20048;-76
2021/01/17 08:35:20;;;;;;;40.75;16.38;;;1.70;99.90;;;;;;5106513;28;20071;-74
2021/01/17 08:37:54;;;;;;;39.08;16.65;;;1.40;99.90;;;;;;5110259;28;20051;-73
2021/01/17 08:40:29;;;;;;;47.05;17.75;;;1.30;99.90;;;;;;5106027;28;20134;-74
2021/01/17 08:43:00;;;;;;;38.83;17.88;;;1.40;99.90;;;;;;5108542;28;20051;-73
2021/01/17 08:45:27;;;;;;;38.22;16.67;;;1.60;99.90;;;;;;5105393;28;20124;-73
2021/01/17 08:47:54;;;;;;;42.08;18.63;;;1.50;99.90;;;;;;5105513;27;20483;-74
2021/01/17 08:50:34;;;;;;;43.22;18.08;;;1.60;99.90;;;;;;5111263;28;20143;-75
2021/01/17 08:53:12;;;;;;;45.67;17.58;;;1.70;99.90;;;;;;5109726;28;20055;-75
2021/01/17 08:55:40;;;;;;;42.90;17.77;;;2.10;99.90;;;;;;5105520;28;20127;-74
2021/01/17 08:58:09;;;;;;;43.50;16.65;;;2.10;99.90;;;;;;5110106;28;20154;-74
2021/01/17 09:00:53;;;;;;;42.35;18.08;;;2.10;99.90;;;;;;5106115;28;20052;-73
2021/01/17 09:03:36;;;;;;;39.17;16.92;;;1.90;99.90;;;;;;5108786;28;20071;-74
2021/01/17 09:06:03;;;;;;;40.88;17.80;;;1.90;99.90;;;;;;5108001;28;20491;-74
2021/01/17 09:08:31;;;;;;;49.33;19.83;;;1.70;99.90;;;;;;5107071;28;20047;-74
2021/01/17 09:10:57;;;;;;;45.10;18.65;;;1.80;99.90;;;;;;5104885;28;20426;-75
2021/01/17 09:13:32;;;;;;;42.35;19.15;;;2.30;99.90;;;;;;5109317;28;20071;-75
2021/01/17 09:16:03;;;;;;;40.67;17.98;;;2.00;99.90;;;;;;5108893;28;20493;-76
2021/01/17 09:18:36;;;;;;;45.22;18.98;;;2.20;99.90;;;;;;5105798;28;20039;-73
2021/01/17 09:21:06;;;;;;;41.50;18.75;;;2.10;99.90;;;;;;5108254;28;20085;-74
2021/01/17 09:23:40;;;;;;;42.17;18.00;;;2.10;99.90;;;;;;5106695;28;20134;-74
2021/01/17 09:26:08;;;;;;;39.83;18.10;;;2.30;99.90;;;;;;5104244;28;20044;-73
2021/01/17 09:28:34;;;;;;;43.50;18.25;;;2.30;99.90;;;;;;5108128;28;20106;-74
2021/01/17 09:31:02;;;;;;;38.88;16.88;;;2.10;99.90;;;;;;5102624;28;20394;-74
2021/01/17 09:33:30;;;;;;;41.47;18.63;;;2.20;99.90;;;;;;5110113;28;20504;-80
2021/01/17 09:35:56;;;;;;;41.72;17.95;;;2.20;99.90;;;;;;5095941;28;20043;-81
2021/01/17 09:38:24;;;;;;;40.22;18.58;;;2.20;99.90;;;;;;5101133;28;20040;-80
2021/01/17 09:40:53;;;;;;;37.80;16.00;;;2.50;99.90;;;;;;5104425;28;20138;-79
2021/01/17 09:43:20;;;;;;;41.42;17.85;;;2.60;99.90;;;;;;5088198;28;20100;-74
2021/01/17 09:45:50;;;;;;;44.58;18.10;;;2.70;99.90;;;;;;5101092;28;20078;-75
2021/01/17 09:48:23;;;;;;;41.13;17.65;;;2.60;99.90;;;;;;5102598;28;20094;-74
2021/01/17 09:50:53;;;;;;;45.65;19.23;;;2.50;99.90;;;;;;5105267;28;20112;-75
2021/01/17 09:53:19;;;;;;;43.73;18.47;;;2.60;99.90;;;;;;5104200;28;20790;-74
2021/01/17 09:55:47;;;;;;;43.38;17.38;;;2.70;99.90;;;;;;5101901;28;20162;-74
2021/01/17 09:58:15;;;;;;;38.85;17.42;;;2.50;99.90;;;;;;5088746;28;20068;-74
2021/01/17 10:00:43;;;;;;;42.05;18.55;;;2.50;99.90;;;;;;5088529;28;20051;-74
2021/01/17 10:03:15;;;;;;;38.70;17.17;;;2.40;99.90;;;;;;5089432;28;20048;-74
2021/01/17 10:05:44;;;;;;;38.90;17.50;;;2.60;99.90;;;;;;5089950;28;20090;-73
2021/01/17 10:08:12;;;;;;;39.85;17.63;;;2.70;99.90;;;;;;5091773;28;20047;-73
2021/01/17 10:10:41;;;;;;;38.03;16.17;;;2.70;99.90;;;;;;5091472;28;20043;-73
2021/01/17 10:13:08;;;;;;;41.15;17.33;;;3.00;99.90;;;;;;5099846;28;20072;-74
2021/01/17 10:15:38;;;;;;;34.17;15.88;;;3.00;99.90;;;;;;5087560;28;20089;-72
2021/01/17 10:18:06;;;;;;;35.20;15.85;;;3.20;99.90;;;;;;5089855;28;20047;-73
2021/01/17 10:20:38;;;;;;;36.45;15.95;;;2.80;99.90;;;;;;5092763;28;20100;-74
2021/01/17 10:23:18;;;;;;;40.85;16.95;;;2.70;99.90;;;;;;5092651;28;20451;-74
2021/01/17 10:25:45;;;;;;;41.15;17.88;;;2.90;99.90;;;;;;5092149;28;20063;-73
2021/01/17 10:28:12;;;;;;;42.13;17.30;;;3.00;99.90;;;;;;5092286;28;20083;-74
2021/01/17 10:30:40;;;;;;;36.95;16.67;;;3.30;99.90;;;;;;5091871;27;20478;-74
2021/01/17 10:33:09;;;;;;;39.40;17.70;;;2.90;99.90;;;;;;5092247;28;20934;-74
2021/01/17 10:35:44;;;;;;;39.72;17.08;;;3.00;99.90;;;;;;5091779;28;20093;-73
2021/01/17 10:38:12;;;;;;;36.25;16.20;;;3.30;99.90;;;;;;5090805;27;20132;-74
2021/01/17 10:40:40;;;;;;;39.70;17.00;;;3.60;99.90;;;;;;5098066;28;20051;-72
2021/01/17 10:43:09;;;;;;;38.75;17.38;;;3.60;99.90;;;;;;5090900;28;20582;-72
2021/01/17 10:45:39;;;;;;;38.20;16.53;;;3.40;99.90;;;;;;5092059;28;20104;-72
2021/01/17 10:48:11;;;;;;;38.40;16.67;;;3.50;99.90;;;;;;5091261;28;20056;-72
2021/01/17 10:50:48;;;;;;;34.78;15.90;;;3.90;99.90;;;;;;5088132;28;20047;-72
2021/01/17 10:53:18;;;;;;;33.95;16.42;;;3.80;99.90;;;;;;5090804;28;20149;-72
2021/01/17 10:55:48;;;;;;;37.83;16.98;;;3.80;99.90;;;;;;5089481;28;20054;-71
2021/01/17 10:58:24;;;;;;;43.22;16.90;;;3.70;99.90;;;;;;5089387;28;20101;-73
2021/01/17 11:00:55;;;;;;;36.92;15.45;;;3.80;99.90;;;;;;5090306;28;20143;-72
2021/01/17 11:03:33;;;;;;;36.60;15.00;;;3.70;99.90;;;;;;5094460;28;20055;-71
2021/01/17 11:06:06;;;;;;;35.70;16.13;;;3.60;99.90;;;;;;5089210;27;20052;-71
2021/01/17 11:08:53;;;;;;;37.95;15.88;;;3.50;99.90;;;;;;5088971;28;20705;-73
2021/01/17 11:11:22;;;;;;;32.35;15.23;;;3.70;99.90;;;;;;5089808;27;20126;-71
2021/01/17 11:13:58;;;;;;;33.30;14.93;;;4.00;99.90;;;;;;5091748;28;20454;-72
2021/01/17 11:16:58;;;;;;;33.92;15.18;;;3.80;99.90;;;;;;5088411;28;20192;-79
2021/01/17 11:19:37;;;;;;;33.95;14.57;;;4.00;99.90;;;;;;5067096;28;20084;-73
2021/01/17 11:22:06;;;;;;;37.60;15.32;;;3.70;99.90;;;;;;5093469;28;20040;-73
2021/01/17 11:24:37;;;;;;;33.08;14.98;;;4.00;99.90;;;;;;5091489;28;20757;-72
2021/01/17 11:27:13;;;;;;;34.92;14.20;;;3.70;99.90;;;;;;5092731;28;20047;-72
2021/01/17 11:29:41;;;;;;;31.83;14.25;;;3.40;99.90;;;;;;5105211;27;20052;-72
2021/01/17 11:32:09;;;;;;;29.42;13.25;;;3.60;99.90;;;;;;5088128;28;20080;-73
2021/01/17 11:34:41;;;;;;;30.58;13.43;;;3.70;99.90;;;;;;5091200;28;20458;-73
2021/01/17 11:37:08;;;;;;;24.73;11.90;;;3.50;99.90;;;;;;5106379;27;20043;-72
2021/01/17 11:39:35;;;;;;;25.23;11.60;;;3.70;99.90;;;;;;5090195;28;20081;-71
2021/01/17 11:42:02;;;;;;;28.98;12.55;;;3.50;99.90;;;;;;5090542;27;20059;-73
2021/01/17 11:44:33;;;;;;;257.95;133.63;;;3.30;99.90;;;;;;5095003;28;20052;-73
2021/01/17 11:47:01;;;;;;;29.77;14.75;;;3.50;99.90;;;;;;5090358;27;20060;-75
2021/01/17 11:49:28;;;;;;;27.88;12.88;;;3.30;99.90;;;;;;5091272;28;20379;-73
2021/01/17 11:51:56;;;;;;;29.90;13.77;;;3.30;99.90;;;;;;5091052;28;20486;-74
2021/01/17 11:54:27;;;;;;;28.77;14.50;;;3.50;99.90;;;;;;5097622;27;20056;-73
2021/01/17 11:57:05;;;;;;;34.45;14.57;;;3.60;99.90;;;;;;5091464;28;20190;-72
2021/01/17 11:59:34;;;;;;;26.02;12.77;;;4.00;99.90;;;;;;5088446;28;20198;-72
2021/01/17 12:02:24;;;;;;;29.48;13.68;;;3.60;99.90;;;;;;5092601;28;20223;-73
2021/01/17 12:04:59;;;;;;;36.53;14.52;;;3.20;99.90;;;;;;5085349;28;20641;-72
2021/01/17 12:07:25;;;;;;;28.40;13.75;;;3.10;99.90;;;;;;5093628;28;20105;-76
2021/01/17 12:10:21;;;;;;;29.00;13.75;;;3.30;99.90;;;;;;5092612;28;20175;-73
2021/01/17 12:12:47;;;;;;;28.40;13.73;;;3.10;99.90;;;;;;5090261;28;21187;-76
2021/01/17 12:15:14;;;;;;;24.80;12.20;;;3.20;99.90;;;;;;5088741;27;20075;-73
2021/01/17 12:17:40;;;;;;;30.70;13.40;;;3.60;99.90;;;;;;5092665;28;20134;-74
2021/01/17 12:20:08;;;;;;;27.23;13.32;;;3.70;99.90;;;;;;5091389;27;20048;-73
2021/01/17 12:22:34;;;;;;;30.63;13.30;;;3.70;99.90;;;;;;5092238;28;20257;-74
2021/01/17 12:25:01;;;;;;;29.73;12.63;;;3.90;99.90;;;;;;5092115;28;20080;-74
2021/01/17 12:27:27;;;;;;;28.25;13.30;;;3.50;99.90;;;;;;5089023;28;20113;-73
2021/01/17 12:29:54;;;;;;;31.98;13.73;;;3.50;99.90;;;;;;5090612;28;20127;-74
2021/01/17 12:32:21;;;;;;;29.42;12.93;;;3.30;99.90;;;;;;5088908;27;20044;-74
2021/01/17 12:34:48;;;;;;;30.23;14.05;;;3.20;99.90;;;;;;5091140;28;20123;-73
2021/01/17 12:37:14;;;;;;;31.65;14.77;;;3.40;99.90;;;;;;5096156;28;20095;-75
2021/01/17 12:39:40;;;;;;;36.92;17.17;;;3.20;99.90;;;;;;5091186;28;20144;-74
2021/01/17 12:42:07;;;;;;;32.35;15.30;;;3.20;99.90;;;;;;5090575;28;20215;-73
2021/01/17 12:44:33;;;;;;;35.67;15.77;;;3.20;99.90;;;;;;5092937;28;20071;-73
2021/01/17 12:46:59;;;;;;;30.13;14.02;;;3.20;99.90;;;;;;5094935;28;20182;-75
2021/01/17 12:49:26;;;;;;;33.10;14.75;;;3.20;99.90;;;;;;5091789;28;20065;-75
2021/01/17 12:51:52;;;;;;;32.58;14.75;;;3.20;99.90;;;;;;5097498;28;20066;-75
2021/01/17 12:54:19;;;;;;;31.88;14.65;;;3.00;99.90;;;;;;5087757;28;20043;-76
2021/01/17 12:56:46;;;;;;;29.65;14.38;;;3.00;99.90;;;;;;5087357;28;20044;-74